sensor_id;sensor_type;location;lat;lon;timestamp;temperature;humidity
75819;DHT22;64453;51.944;9.796;2024-02-26T00:01:58;6.70;56.50
75819;DHT22;64453;51.944;9.796;2024-02-26T00:04:25;6.50;57.10
75819;DHT22;64453;51.944;9.796;2024-02-26T00:06:52;6.40;57.20
75819;DHT22;64453;51.944;9.796;2024-02-26T00:09:20;6.50;57.50
75819;DHT22;64453;51.944;9.796;2024-02-26T00:11:47;6.50;57.10
75819;DHT22;64453;51.944;9.796;2024-02-26T00:14:16;6.60;57.10
75819;DHT22;64453;51.944;9.796;2024-02-26T00:16:43;6.70;56.90
75819;DHT22;64453;51.944;9.796;2024-02-26T00:19:10;6.70;56.90
75819;DHT22;64453;51.944;9.796;2024-02-26T00:21:40;6.70;57.00
75819;DHT22;64453;51.944;9.796;2024-02-26T00:24:07;6.30;56.80
75819;DHT22;64453;51.944;9.796;2024-02-26T00:26:34;5.90;57.10
75819;DHT22;64453;51.944;9.796;2024-02-26T00:29:01;6.10;58.20
75819;DHT22;64453;51.944;9.796;2024-02-26T00:31:34;5.80;57.50
75819;DHT22;64453;51.944;9.796;2024-02-26T00:34:03;5.90;58.20
75819;DHT22;64453;51.944;9.796;2024-02-26T00:36:31;6.20;57.50
75819;DHT22;64453;51.944;9.796;2024-02-26T00:38:58;6.50;57.40
75819;DHT22;64453;51.944;9.796;2024-02-26T00:41:25;6.60;57.10
75819;DHT22;64453;51.944;9.796;2024-02-26T00:43:52;6.80;56.70
75819;DHT22;64453;51.944;9.796;2024-02-26T00:46:19;6.70;56.20
75819;DHT22;64453;51.944;9.796;2024-02-26T00:48:48;6.40;56.60
75819;DHT22;64453;51.944;9.796;2024-02-26T00:51:15;6.30;56.90
75819;DHT22;64453;51.944;9.796;2024-02-26T00:53:42;6.30;57.10
75819;DHT22;64453;51.944;9.796;2024-02-26T00:56:09;6.30;57.10
75819;DHT22;64453;51.944;9.796;2024-02-26T00:58:36;6.20;57.10
75819;DHT22;64453;51.944;9.796;2024-02-26T01:01:03;6.20;57.20
75819;DHT22;64453;51.944;9.796;2024-02-26T01:03:31;6.20;57.00
75819;DHT22;64453;51.944;9.796;2024-02-26T01:05:59;6.20;57.10
75819;DHT22;64453;51.944;9.796;2024-02-26T01:08:26;6.10;57.20
75819;DHT22;64453;51.944;9.796;2024-02-26T01:10:53;5.50;57.60
75819;DHT22;64453;51.944;9.796;2024-02-26T01:13:20;5.90;58.00
75819;DHT22;64453;51.944;9.796;2024-02-26T01:15:48;5.80;57.60
75819;DHT22;64453;51.944;9.796;2024-02-26T01:18:15;5.60;58.10
75819;DHT22;64453;51.944;9.796;2024-02-26T01:20:43;5.70;57.60
75819;DHT22;64453;51.944;9.796;2024-02-26T01:23:12;5.50;57.80
75819;DHT22;64453;51.944;9.796;2024-02-26T01:25:40;5.60;57.90
75819;DHT22;64453;51.944;9.796;2024-02-26T01:28:08;5.70;57.50
75819;DHT22;64453;51.944;9.796;2024-02-26T01:30:37;5.90;57.50
75819;DHT22;64453;51.944;9.796;2024-02-26T01:33:04;6.10;57.50
75819;DHT22;64453;51.944;9.796;2024-02-26T01:35:31;6.10;57.20
75819;DHT22;64453;51.944;9.796;2024-02-26T01:37:58;6.00;57.20
75819;DHT22;64453;51.944;9.796;2024-02-26T01:40:28;6.10;57.00
75819;DHT22;64453;51.944;9.796;2024-02-26T01:42:55;5.80;56.80
75819;DHT22;64453;51.944;9.796;2024-02-26T01:45:22;5.80;57.30
75819;DHT22;64453;51.944;9.796;2024-02-26T01:47:51;5.80;57.50
75819;DHT22;64453;51.944;9.796;2024-02-26T01:50:19;6.00;57.00
75819;DHT22;64453;51.944;9.796;2024-02-26T01:52:47;6.20;56.80
75819;DHT22;64453;51.944;9.796;2024-02-26T01:55:16;6.10;57.20
75819;DHT22;64453;51.944;9.796;2024-02-26T01:57:48;6.00;57.20
75819;DHT22;64453;51.944;9.796;2024-02-26T02:00:18;6.20;57.80
75819;DHT22;64453;51.944;9.796;2024-02-26T02:02:46;5.50;57.30
75819;DHT22;64453;51.944;9.796;2024-02-26T02:05:15;5.50;58.30
75819;DHT22;64453;51.944;9.796;2024-02-26T02:07:43;5.50;58.80
75819;DHT22;64453;51.944;9.796;2024-02-26T02:10:13;5.50;58.60
75819;DHT22;64453;51.944;9.796;2024-02-26T02:12:40;5.40;59.10
75819;DHT22;64453;51.944;9.796;2024-02-26T02:15:09;5.90;58.80
75819;DHT22;64453;51.944;9.796;2024-02-26T02:17:36;6.00;58.10
75819;DHT22;64453;51.944;9.796;2024-02-26T02:20:05;5.80;58.00
75819;DHT22;64453;51.944;9.796;2024-02-26T02:22:40;6.10;58.50
75819;DHT22;64453;51.944;9.796;2024-02-26T02:25:07;6.10;58.20
75819;DHT22;64453;51.944;9.796;2024-02-26T02:27:35;6.20;57.60
75819;DHT22;64453;51.944;9.796;2024-02-26T02:30:05;6.30;57.90
75819;DHT22;64453;51.944;9.796;2024-02-26T02:32:37;6.10;57.90
75819;DHT22;64453;51.944;9.796;2024-02-26T02:35:05;6.20;58.20
75819;DHT22;64453;51.944;9.796;2024-02-26T02:37:32;6.20;58.20
75819;DHT22;64453;51.944;9.796;2024-02-26T02:40:01;6.30;58.00
75819;DHT22;64453;51.944;9.796;2024-02-26T02:42:28;6.40;58.00
75819;DHT22;64453;51.944;9.796;2024-02-26T02:44:56;6.20;58.20
75819;DHT22;64453;51.944;9.796;2024-02-26T02:47:23;6.50;58.20
75819;DHT22;64453;51.944;9.796;2024-02-26T02:49:52;6.30;58.00
75819;DHT22;64453;51.944;9.796;2024-02-26T02:52:19;6.30;58.30
75819;DHT22;64453;51.944;9.796;2024-02-26T02:54:46;6.30;58.10
75819;DHT22;64453;51.944;9.796;2024-02-26T02:57:14;6.40;58.40
75819;DHT22;64453;51.944;9.796;2024-02-26T02:59:41;6.10;57.60
75819;DHT22;64453;51.944;9.796;2024-02-26T03:02:08;6.20;59.00
75819;DHT22;64453;51.944;9.796;2024-02-26T03:04:35;5.60;59.10
75819;DHT22;64453;51.944;9.796;2024-02-26T03:07:02;5.90;60.10
75819;DHT22;64453;51.944;9.796;2024-02-26T03:09:28;5.30;60.20
75819;DHT22;64453;51.944;9.796;2024-02-26T03:11:55;5.90;60.60
75819;DHT22;64453;51.944;9.796;2024-02-26T03:14:24;5.20;61.20
75819;DHT22;64453;51.944;9.796;2024-02-26T03:16:53;5.80;61.10
75819;DHT22;64453;51.944;9.796;2024-02-26T03:19:20;5.70;61.20
75819;DHT22;64453;51.944;9.796;2024-02-26T03:21:48;5.90;60.90
75819;DHT22;64453;51.944;9.796;2024-02-26T03:24:15;6.20;60.50
75819;DHT22;64453;51.944;9.796;2024-02-26T03:26:42;6.30;59.80
75819;DHT22;64453;51.944;9.796;2024-02-26T03:29:09;6.40;59.80
75819;DHT22;64453;51.944;9.796;2024-02-26T03:31:42;6.40;59.80
75819;DHT22;64453;51.944;9.796;2024-02-26T03:34:09;6.50;59.50
75819;DHT22;64453;51.944;9.796;2024-02-26T03:36:38;6.60;59.40
75819;DHT22;64453;51.944;9.796;2024-02-26T03:39:05;6.50;59.30
75819;DHT22;64453;51.944;9.796;2024-02-26T03:41:33;6.60;59.50
75819;DHT22;64453;51.944;9.796;2024-02-26T03:44:00;6.50;59.50
75819;DHT22;64453;51.944;9.796;2024-02-26T03:46:28;6.60;59.50
75819;DHT22;64453;51.944;9.796;2024-02-26T03:48:56;6.40;59.70
75819;DHT22;64453;51.944;9.796;2024-02-26T03:51:23;6.60;59.70
75819;DHT22;64453;51.944;9.796;2024-02-26T03:53:50;6.70;59.40
75819;DHT22;64453;51.944;9.796;2024-02-26T03:56:18;6.70;59.40
75819;DHT22;64453;51.944;9.796;2024-02-26T03:58:46;6.70;59.40
75819;DHT22;64453;51.944;9.796;2024-02-26T04:01:14;6.60;59.70
75819;DHT22;64453;51.944;9.796;2024-02-26T04:03:42;6.50;59.70
75819;DHT22;64453;51.944;9.796;2024-02-26T04:06:11;6.70;59.90
75819;DHT22;64453;51.944;9.796;2024-02-26T04:08:40;6.80;59.70
75819;DHT22;64453;51.944;9.796;2024-02-26T04:11:08;6.80;59.90
75819;DHT22;64453;51.944;9.796;2024-02-26T04:13:35;6.80;60.00
75819;DHT22;64453;51.944;9.796;2024-02-26T04:16:04;6.80;59.70
75819;DHT22;64453;51.944;9.796;2024-02-26T04:18:32;6.90;59.50
75819;DHT22;64453;51.944;9.796;2024-02-26T04:21:01;6.60;59.70
75819;DHT22;64453;51.944;9.796;2024-02-26T04:23:29;6.10;60.40
75819;DHT22;64453;51.944;9.796;2024-02-26T04:25:56;6.30;61.10
75819;DHT22;64453;51.944;9.796;2024-02-26T04:28:23;6.50;61.00
75819;DHT22;64453;51.944;9.796;2024-02-26T04:30:51;6.50;60.90
75819;DHT22;64453;51.944;9.796;2024-02-26T04:33:19;6.40;60.90
75819;DHT22;64453;51.944;9.796;2024-02-26T04:35:46;6.50;60.80
75819;DHT22;64453;51.944;9.796;2024-02-26T04:38:13;6.50;60.70
75819;DHT22;64453;51.944;9.796;2024-02-26T04:40:42;6.20;60.80
75819;DHT22;64453;51.944;9.796;2024-02-26T04:43:08;6.20;61.80
75819;DHT22;64453;51.944;9.796;2024-02-26T04:45:36;6.00;61.60
75819;DHT22;64453;51.944;9.796;2024-02-26T04:48:04;6.00;62.20
75819;DHT22;64453;51.944;9.796;2024-02-26T04:50:31;6.30;62.20
75819;DHT22;64453;51.944;9.796;2024-02-26T04:52:59;6.40;61.80
75819;DHT22;64453;51.944;9.796;2024-02-26T04:55:26;6.60;61.50
75819;DHT22;64453;51.944;9.796;2024-02-26T04:57:54;6.70;61.00
75819;DHT22;64453;51.944;9.796;2024-02-26T05:00:21;6.50;61.20
75819;DHT22;64453;51.944;9.796;2024-02-26T05:02:48;6.50;61.50
75819;DHT22;64453;51.944;9.796;2024-02-26T05:05:15;6.40;61.40
75819;DHT22;64453;51.944;9.796;2024-02-26T05:07:44;6.60;61.60
75819;DHT22;64453;51.944;9.796;2024-02-26T05:10:10;6.80;61.50
75819;DHT22;64453;51.944;9.796;2024-02-26T05:12:40;6.80;61.20
75819;DHT22;64453;51.944;9.796;2024-02-26T05:15:10;6.60;61.70
75819;DHT22;64453;51.944;9.796;2024-02-26T05:17:41;6.50;61.90
75819;DHT22;64453;51.944;9.796;2024-02-26T05:20:09;6.70;61.90
75819;DHT22;64453;51.944;9.796;2024-02-26T05:22:37;6.80;61.70
75819;DHT22;64453;51.944;9.796;2024-02-26T05:25:04;6.80;61.70
75819;DHT22;64453;51.944;9.796;2024-02-26T05:27:32;6.90;61.60
75819;DHT22;64453;51.944;9.796;2024-02-26T05:30:00;6.70;61.70
75819;DHT22;64453;51.944;9.796;2024-02-26T05:32:28;6.80;61.90
75819;DHT22;64453;51.944;9.796;2024-02-26T05:34:55;6.90;61.80
75819;DHT22;64453;51.944;9.796;2024-02-26T05:37:22;6.90;61.50
75819;DHT22;64453;51.944;9.796;2024-02-26T05:39:49;6.70;62.00
75819;DHT22;64453;51.944;9.796;2024-02-26T05:42:15;6.90;62.20
75819;DHT22;64453;51.944;9.796;2024-02-26T05:44:42;6.90;62.10
75819;DHT22;64453;51.944;9.796;2024-02-26T05:47:09;6.90;61.90
75819;DHT22;64453;51.944;9.796;2024-02-26T05:49:37;6.90;62.40
75819;DHT22;64453;51.944;9.796;2024-02-26T05:52:04;6.90;61.70
75819;DHT22;64453;51.944;9.796;2024-02-26T05:54:32;7.00;62.00
75819;DHT22;64453;51.944;9.796;2024-02-26T05:56:59;7.00;61.90
75819;DHT22;64453;51.944;9.796;2024-02-26T05:59:26;7.00;61.80
75819;DHT22;64453;51.944;9.796;2024-02-26T06:01:53;6.90;61.70
75819;DHT22;64453;51.944;9.796;2024-02-26T06:04:20;6.80;62.40
75819;DHT22;64453;51.944;9.796;2024-02-26T06:06:48;6.90;62.80
75819;DHT22;64453;51.944;9.796;2024-02-26T06:09:16;7.00;62.40
75819;DHT22;64453;51.944;9.796;2024-02-26T06:11:42;6.90;62.70
75819;DHT22;64453;51.944;9.796;2024-02-26T06:14:09;6.70;63.00
75819;DHT22;64453;51.944;9.796;2024-02-26T06:16:38;6.70;63.10
75819;DHT22;64453;51.944;9.796;2024-02-26T06:19:05;6.60;63.20
75819;DHT22;64453;51.944;9.796;2024-02-26T06:21:32;6.80;63.40
75819;DHT22;64453;51.944;9.796;2024-02-26T06:24:01;6.90;63.20
75819;DHT22;64453;51.944;9.796;2024-02-26T06:26:28;7.00;63.00
75819;DHT22;64453;51.944;9.796;2024-02-26T06:28:55;7.10;62.80
75819;DHT22;64453;51.944;9.796;2024-02-26T06:31:23;6.70;63.10
75819;DHT22;64453;51.944;9.796;2024-02-26T06:33:52;6.80;63.60
75819;DHT22;64453;51.944;9.796;2024-02-26T06:36:19;6.90;63.40
75819;DHT22;64453;51.944;9.796;2024-02-26T06:38:46;7.00;63.20
75819;DHT22;64453;51.944;9.796;2024-02-26T06:41:14;7.10;63.10
75819;DHT22;64453;51.944;9.796;2024-02-26T06:43:41;7.10;63.00
75819;DHT22;64453;51.944;9.796;2024-02-26T06:46:08;7.10;63.20
75819;DHT22;64453;51.944;9.796;2024-02-26T06:48:35;7.00;63.40
75819;DHT22;64453;51.944;9.796;2024-02-26T06:51:03;6.90;63.90
75819;DHT22;64453;51.944;9.796;2024-02-26T06:53:30;7.00;63.80
75819;DHT22;64453;51.944;9.796;2024-02-26T06:55:57;6.80;64.00
75819;DHT22;64453;51.944;9.796;2024-02-26T06:58:25;6.80;64.80
75819;DHT22;64453;51.944;9.796;2024-02-26T07:00:52;7.00;64.60
75819;DHT22;64453;51.944;9.796;2024-02-26T07:03:19;7.10;64.10
75819;DHT22;64453;51.944;9.796;2024-02-26T07:05:49;7.10;64.10
75819;DHT22;64453;51.944;9.796;2024-02-26T07:08:16;7.20;64.40
75819;DHT22;64453;51.944;9.796;2024-02-26T07:10:44;7.20;64.10
75819;DHT22;64453;51.944;9.796;2024-02-26T07:13:11;7.20;64.20
75819;DHT22;64453;51.944;9.796;2024-02-26T07:15:39;7.20;63.70
75819;DHT22;64453;51.944;9.796;2024-02-26T07:18:07;7.30;63.70
75819;DHT22;64453;51.944;9.796;2024-02-26T07:20:34;7.30;63.90
75819;DHT22;64453;51.944;9.796;2024-02-26T07:23:01;7.40;64.10
75819;DHT22;64453;51.944;9.796;2024-02-26T07:25:28;7.40;63.60
75819;DHT22;64453;51.944;9.796;2024-02-26T07:27:56;7.40;64.00
75819;DHT22;64453;51.944;9.796;2024-02-26T07:30:23;7.40;63.90
75819;DHT22;64453;51.944;9.796;2024-02-26T07:32:52;7.40;63.80
75819;DHT22;64453;51.944;9.796;2024-02-26T07:35:19;7.50;64.00
75819;DHT22;64453;51.944;9.796;2024-02-26T07:37:47;7.40;64.30
75819;DHT22;64453;51.944;9.796;2024-02-26T07:40:15;7.60;64.50
75819;DHT22;64453;51.944;9.796;2024-02-26T07:42:42;7.50;64.50
75819;DHT22;64453;51.944;9.796;2024-02-26T07:45:10;7.60;64.60
75819;DHT22;64453;51.944;9.796;2024-02-26T07:47:37;7.20;65.10
75819;DHT22;64453;51.944;9.796;2024-02-26T07:50:08;7.20;66.20
75819;DHT22;64453;51.944;9.796;2024-02-26T07:52:37;7.00;66.60
75819;DHT22;64453;51.944;9.796;2024-02-26T07:55:05;7.00;66.80
75819;DHT22;64453;51.944;9.796;2024-02-26T07:57:33;7.30;66.80
75819;DHT22;64453;51.944;9.796;2024-02-26T08:00:00;7.50;66.30
75819;DHT22;64453;51.944;9.796;2024-02-26T08:02:27;7.60;66.20
75819;DHT22;64453;51.944;9.796;2024-02-26T08:04:54;7.70;66.30
75819;DHT22;64453;51.944;9.796;2024-02-26T08:07:22;7.70;65.70
75819;DHT22;64453;51.944;9.796;2024-02-26T08:09:49;7.80;65.50
75819;DHT22;64453;51.944;9.796;2024-02-26T08:12:16;7.80;65.70
75819;DHT22;64453;51.944;9.796;2024-02-26T08:14:43;7.90;65.50
75819;DHT22;64453;51.944;9.796;2024-02-26T08:17:10;7.90;65.20
75819;DHT22;64453;51.944;9.796;2024-02-26T08:19:37;7.90;65.50
75819;DHT22;64453;51.944;9.796;2024-02-26T08:22:04;7.90;65.90
75819;DHT22;64453;51.944;9.796;2024-02-26T08:24:32;8.00;66.00
75819;DHT22;64453;51.944;9.796;2024-02-26T08:26:59;8.10;66.20
75819;DHT22;64453;51.944;9.796;2024-02-26T08:29:26;8.00;66.20
75819;DHT22;64453;51.944;9.796;2024-02-26T08:31:53;8.00;66.60
75819;DHT22;64453;51.944;9.796;2024-02-26T08:34:20;8.10;66.70
75819;DHT22;64453;51.944;9.796;2024-02-26T08:36:47;8.10;67.10
75819;DHT22;64453;51.944;9.796;2024-02-26T08:39:15;8.00;67.50
75819;DHT22;64453;51.944;9.796;2024-02-26T08:41:46;8.20;67.00
75819;DHT22;64453;51.944;9.796;2024-02-26T08:44:13;8.20;66.60
75819;DHT22;64453;51.944;9.796;2024-02-26T08:46:40;8.20;66.30
75819;DHT22;64453;51.944;9.796;2024-02-26T08:49:07;8.30;66.30
75819;DHT22;64453;51.944;9.796;2024-02-26T08:51:34;8.20;67.30
75819;DHT22;64453;51.944;9.796;2024-02-26T08:54:01;8.40;67.50
75819;DHT22;64453;51.944;9.796;2024-02-26T08:56:28;8.40;67.80
75819;DHT22;64453;51.944;9.796;2024-02-26T08:58:56;8.50;68.00
75819;DHT22;64453;51.944;9.796;2024-02-26T09:01:25;8.60;67.80
75819;DHT22;64453;51.944;9.796;2024-02-26T09:03:51;8.60;67.80
75819;DHT22;64453;51.944;9.796;2024-02-26T09:06:18;8.70;67.80
75819;DHT22;64453;51.944;9.796;2024-02-26T09:08:45;8.80;68.00
75819;DHT22;64453;51.944;9.796;2024-02-26T09:11:12;8.80;66.90
75819;DHT22;64453;51.944;9.796;2024-02-26T09:13:39;8.90;66.90
75819;DHT22;64453;51.944;9.796;2024-02-26T09:16:09;8.90;66.50
75819;DHT22;64453;51.944;9.796;2024-02-26T09:18:36;8.90;66.70
75819;DHT22;64453;51.944;9.796;2024-02-26T09:21:04;9.00;66.80
75819;DHT22;64453;51.944;9.796;2024-02-26T09:23:31;9.00;66.50
75819;DHT22;64453;51.944;9.796;2024-02-26T09:26:00;9.00;66.30
75819;DHT22;64453;51.944;9.796;2024-02-26T09:28:27;9.00;66.40
75819;DHT22;64453;51.944;9.796;2024-02-26T09:30:57;9.00;66.20
75819;DHT22;64453;51.944;9.796;2024-02-26T09:33:25;9.10;66.00
75819;DHT22;64453;51.944;9.796;2024-02-26T09:35:52;9.20;66.20
75819;DHT22;64453;51.944;9.796;2024-02-26T09:38:19;9.20;66.30
75819;DHT22;64453;51.944;9.796;2024-02-26T09:40:46;9.30;66.40
75819;DHT22;64453;51.944;9.796;2024-02-26T09:43:14;9.30;66.30
75819;DHT22;64453;51.944;9.796;2024-02-26T09:45:42;9.40;66.30
75819;DHT22;64453;51.944;9.796;2024-02-26T09:48:10;9.40;66.50
75819;DHT22;64453;51.944;9.796;2024-02-26T09:50:41;9.10;65.80
75819;DHT22;64453;51.944;9.796;2024-02-26T09:53:10;9.40;66.30
75819;DHT22;64453;51.944;9.796;2024-02-26T09:55:38;9.40;65.80
75819;DHT22;64453;51.944;9.796;2024-02-26T09:58:05;9.50;66.00
75819;DHT22;64453;51.944;9.796;2024-02-26T10:00:36;9.50;65.80
75819;DHT22;64453;51.944;9.796;2024-02-26T10:03:05;9.60;66.40
75819;DHT22;64453;51.944;9.796;2024-02-26T10:05:34;9.60;65.70
75819;DHT22;64453;51.944;9.796;2024-02-26T10:08:04;9.60;65.70
75819;DHT22;64453;51.944;9.796;2024-02-26T10:10:33;9.60;65.80
75819;DHT22;64453;51.944;9.796;2024-02-26T10:13:00;9.80;66.10
75819;DHT22;64453;51.944;9.796;2024-02-26T10:15:27;9.80;65.40
75819;DHT22;64453;51.944;9.796;2024-02-26T10:17:54;9.80;66.00
75819;DHT22;64453;51.944;9.796;2024-02-26T10:20:21;9.90;66.00
75819;DHT22;64453;51.944;9.796;2024-02-26T10:22:49;9.90;66.10
75819;DHT22;64453;51.944;9.796;2024-02-26T10:25:19;9.70;65.60
75819;DHT22;64453;51.944;9.796;2024-02-26T10:27:47;9.90;66.10
75819;DHT22;64453;51.944;9.796;2024-02-26T10:30:16;10.10;65.90
75819;DHT22;64453;51.944;9.796;2024-02-26T10:32:45;10.20;66.00
75819;DHT22;64453;51.944;9.796;2024-02-26T10:35:13;10.20;65.60
75819;DHT22;64453;51.944;9.796;2024-02-26T10:37:41;10.20;65.00
75819;DHT22;64453;51.944;9.796;2024-02-26T10:40:10;10.30;65.20
75819;DHT22;64453;51.944;9.796;2024-02-26T10:42:40;10.30;64.20
75819;DHT22;64453;51.944;9.796;2024-02-26T10:45:08;10.40;64.80
75819;DHT22;64453;51.944;9.796;2024-02-26T10:47:36;10.50;64.60
75819;DHT22;64453;51.944;9.796;2024-02-26T10:50:05;10.40;64.20
75819;DHT22;64453;51.944;9.796;2024-02-26T10:52:34;10.40;64.60
75819;DHT22;64453;51.944;9.796;2024-02-26T10:55:03;10.40;65.00
75819;DHT22;64453;51.944;9.796;2024-02-26T10:57:33;10.50;63.40
75819;DHT22;64453;51.944;9.796;2024-02-26T11:00:06;10.40;63.00
75819;DHT22;64453;51.944;9.796;2024-02-26T11:02:38;10.50;63.00
75819;DHT22;64453;51.944;9.796;2024-02-26T11:05:08;10.20;61.40
75819;DHT22;64453;51.944;9.796;2024-02-26T11:07:35;10.40;62.30
75819;DHT22;64453;51.944;9.796;2024-02-26T11:10:05;10.30;60.70
75819;DHT22;64453;51.944;9.796;2024-02-26T11:12:33;10.50;61.60
75819;DHT22;64453;51.944;9.796;2024-02-26T11:15:05;10.60;61.70
75819;DHT22;64453;51.944;9.796;2024-02-26T11:17:33;10.60;61.70
75819;DHT22;64453;51.944;9.796;2024-02-26T11:20:00;10.70;61.40
75819;DHT22;64453;51.944;9.796;2024-02-26T11:22:28;10.70;60.60
75819;DHT22;64453;51.944;9.796;2024-02-26T11:24:56;10.70;61.40
75819;DHT22;64453;51.944;9.796;2024-02-26T11:27:31;10.20;60.60
75819;DHT22;64453;51.944;9.796;2024-02-26T11:30:04;10.20;61.70
75819;DHT22;64453;51.944;9.796;2024-02-26T11:32:32;10.10;61.40
75819;DHT22;64453;51.944;9.796;2024-02-26T11:35:00;10.40;60.90
75819;DHT22;64453;51.944;9.796;2024-02-26T11:37:28;10.50;61.40
75819;DHT22;64453;51.944;9.796;2024-02-26T11:39:55;10.60;60.80
75819;DHT22;64453;51.944;9.796;2024-02-26T11:42:26;10.80;61.10
75819;DHT22;64453;51.944;9.796;2024-02-26T11:44:54;10.90;61.20
75819;DHT22;64453;51.944;9.796;2024-02-26T11:47:23;10.90;59.90
75819;DHT22;64453;51.944;9.796;2024-02-26T11:49:50;10.60;60.30
75819;DHT22;64453;51.944;9.796;2024-02-26T11:52:17;10.80;60.30
75819;DHT22;64453;51.944;9.796;2024-02-26T11:54:45;10.70;59.90
75819;DHT22;64453;51.944;9.796;2024-02-26T11:57:21;10.70;59.40
75819;DHT22;64453;51.944;9.796;2024-02-26T11:59:48;10.70;60.10
75819;DHT22;64453;51.944;9.796;2024-02-26T12:05:24;11.00;60.10
75819;DHT22;64453;51.944;9.796;2024-02-26T12:07:55;11.00;60.80
75819;DHT22;64453;51.944;9.796;2024-02-26T12:10:27;11.10;60.80
75819;DHT22;64453;51.944;9.796;2024-02-26T12:12:58;11.00;59.60
75819;DHT22;64453;51.944;9.796;2024-02-26T12:15:30;10.80;60.30
75819;DHT22;64453;51.944;9.796;2024-02-26T12:18:06;11.00;60.40
75819;DHT22;64453;51.944;9.796;2024-02-26T12:20:35;11.10;59.40
75819;DHT22;64453;51.944;9.796;2024-02-26T12:23:03;11.20;59.40
75819;DHT22;64453;51.944;9.796;2024-02-26T12:25:32;11.20;59.70
75819;DHT22;64453;51.944;9.796;2024-02-26T12:28:00;11.30;59.60
75819;DHT22;64453;51.944;9.796;2024-02-26T12:30:30;11.40;59.90
75819;DHT22;64453;51.944;9.796;2024-02-26T12:32:58;11.30;58.80
75819;DHT22;64453;51.944;9.796;2024-02-26T12:35:28;11.30;59.40
75819;DHT22;64453;51.944;9.796;2024-02-26T12:37:57;11.30;58.50
75819;DHT22;64453;51.944;9.796;2024-02-26T12:40:25;11.30;58.40
75819;DHT22;64453;51.944;9.796;2024-02-26T12:42:54;11.30;58.80
75819;DHT22;64453;51.944;9.796;2024-02-26T12:45:22;11.40;58.80
75819;DHT22;64453;51.944;9.796;2024-02-26T12:47:51;11.40;58.40
75819;DHT22;64453;51.944;9.796;2024-02-26T12:50:17;11.40;58.60
75819;DHT22;64453;51.944;9.796;2024-02-26T12:52:47;11.40;58.60
75819;DHT22;64453;51.944;9.796;2024-02-26T12:55:16;11.40;58.60
75819;DHT22;64453;51.944;9.796;2024-02-26T12:57:45;11.40;58.20
75819;DHT22;64453;51.944;9.796;2024-02-26T13:00:16;11.40;58.60
75819;DHT22;64453;51.944;9.796;2024-02-26T13:02:46;11.40;58.90
75819;DHT22;64453;51.944;9.796;2024-02-26T13:05:14;11.30;58.10
75819;DHT22;64453;51.944;9.796;2024-02-26T13:07:42;11.30;58.70
75819;DHT22;64453;51.944;9.796;2024-02-26T13:10:12;11.30;58.70
75819;DHT22;64453;51.944;9.796;2024-02-26T13:12:43;11.30;58.90
75819;DHT22;64453;51.944;9.796;2024-02-26T13:15:14;11.40;58.50
75819;DHT22;64453;51.944;9.796;2024-02-26T13:17:42;11.40;58.30
75819;DHT22;64453;51.944;9.796;2024-02-26T13:20:10;11.30;58.30
75819;DHT22;64453;51.944;9.796;2024-02-26T13:22:37;11.30;58.00
75819;DHT22;64453;51.944;9.796;2024-02-26T13:25:05;11.30;58.30
75819;DHT22;64453;51.944;9.796;2024-02-26T13:27:34;11.30;58.20
75819;DHT22;64453;51.944;9.796;2024-02-26T13:30:09;11.10;58.40
75819;DHT22;64453;51.944;9.796;2024-02-26T13:32:38;11.10;58.00
75819;DHT22;64453;51.944;9.796;2024-02-26T13:35:07;11.20;58.50
75819;DHT22;64453;51.944;9.796;2024-02-26T13:37:35;11.00;58.00
75819;DHT22;64453;51.944;9.796;2024-02-26T13:40:05;11.10;59.00
75819;DHT22;64453;51.944;9.796;2024-02-26T13:42:34;11.00;58.70
75819;DHT22;64453;51.944;9.796;2024-02-26T13:45:01;11.20;58.50
75819;DHT22;64453;51.944;9.796;2024-02-26T13:47:31;11.30;58.30
75819;DHT22;64453;51.944;9.796;2024-02-26T13:49:58;11.20;58.40
75819;DHT22;64453;51.944;9.796;2024-02-26T13:52:26;11.30;58.60
75819;DHT22;64453;51.944;9.796;2024-02-26T13:54:53;11.20;58.70
75819;DHT22;64453;51.944;9.796;2024-02-26T13:57:20;11.30;59.20
75819;DHT22;64453;51.944;9.796;2024-02-26T13:59:50;11.30;58.90
75819;DHT22;64453;51.944;9.796;2024-02-26T14:02:18;11.30;58.90
75819;DHT22;64453;51.944;9.796;2024-02-26T14:04:46;11.40;59.00
75819;DHT22;64453;51.944;9.796;2024-02-26T14:07:15;11.40;58.90
75819;DHT22;64453;51.944;9.796;2024-02-26T14:09:43;11.40;59.20
75819;DHT22;64453;51.944;9.796;2024-02-26T14:12:12;11.50;59.10
75819;DHT22;64453;51.944;9.796;2024-02-26T14:14:39;11.50;59.00
75819;DHT22;64453;51.944;9.796;2024-02-26T14:17:09;11.50;59.00
75819;DHT22;64453;51.944;9.796;2024-02-26T14:19:36;11.60;59.20
75819;DHT22;64453;51.944;9.796;2024-02-26T14:22:05;11.60;59.10
75819;DHT22;64453;51.944;9.796;2024-02-26T14:24:32;11.50;58.70
75819;DHT22;64453;51.944;9.796;2024-02-26T14:26:59;11.30;59.70
75819;DHT22;64453;51.944;9.796;2024-02-26T14:29:26;11.50;59.90
75819;DHT22;64453;51.944;9.796;2024-02-26T14:31:53;11.60;59.70
75819;DHT22;64453;51.944;9.796;2024-02-26T14:34:23;11.70;59.70
75819;DHT22;64453;51.944;9.796;2024-02-26T14:36:50;11.50;59.40
75819;DHT22;64453;51.944;9.796;2024-02-26T14:39:17;11.60;59.70
75819;DHT22;64453;51.944;9.796;2024-02-26T14:41:44;11.60;59.30
75819;DHT22;64453;51.944;9.796;2024-02-26T14:44:11;11.70;59.50
75819;DHT22;64453;51.944;9.796;2024-02-26T14:46:38;11.70;59.20
75819;DHT22;64453;51.944;9.796;2024-02-26T14:49:05;11.50;59.10
75819;DHT22;64453;51.944;9.796;2024-02-26T14:51:38;11.60;59.20
75819;DHT22;64453;51.944;9.796;2024-02-26T14:54:05;11.70;58.90
75819;DHT22;64453;51.944;9.796;2024-02-26T14:56:32;11.70;59.00
75819;DHT22;64453;51.944;9.796;2024-02-26T14:58:59;11.70;59.20
75819;DHT22;64453;51.944;9.796;2024-02-26T15:01:27;11.70;59.40
75819;DHT22;64453;51.944;9.796;2024-02-26T15:03:54;11.70;59.40
75819;DHT22;64453;51.944;9.796;2024-02-26T15:06:23;11.80;58.80
75819;DHT22;64453;51.944;9.796;2024-02-26T15:08:51;11.80;58.60
75819;DHT22;64453;51.944;9.796;2024-02-26T15:11:18;11.70;58.70
75819;DHT22;64453;51.944;9.796;2024-02-26T15:13:45;11.70;59.10
75819;DHT22;64453;51.944;9.796;2024-02-26T15:16:17;11.70;59.10
75819;DHT22;64453;51.944;9.796;2024-02-26T15:18:46;11.80;59.20
75819;DHT22;64453;51.944;9.796;2024-02-26T15:21:13;11.70;59.10
75819;DHT22;64453;51.944;9.796;2024-02-26T15:23:42;11.70;59.00
75819;DHT22;64453;51.944;9.796;2024-02-26T15:26:12;11.70;59.20
75819;DHT22;64453;51.944;9.796;2024-02-26T15:28:40;11.60;58.80
75819;DHT22;64453;51.944;9.796;2024-02-26T15:31:07;11.50;59.10
75819;DHT22;64453;51.944;9.796;2024-02-26T15:33:34;11.60;60.20
75819;DHT22;64453;51.944;9.796;2024-02-26T15:36:01;11.50;59.70
75819;DHT22;64453;51.944;9.796;2024-02-26T15:38:28;11.50;59.60
75819;DHT22;64453;51.944;9.796;2024-02-26T15:40:55;11.70;59.10
75819;DHT22;64453;51.944;9.796;2024-02-26T15:43:24;11.60;59.80
75819;DHT22;64453;51.944;9.796;2024-02-26T15:45:50;11.70;59.60
75819;DHT22;64453;51.944;9.796;2024-02-26T15:48:17;11.70;59.40